sensor_id;sensor_type;location;lat;lon;timestamp;P1;durP1;ratioP1;P2;durP2;ratioP2
19814;SDS011;10067;53.092;8.800;2023-04-25T00:00:54;28.08;;;6.40;;
19814;SDS011;10067;53.092;8.800;2023-04-25T00:03:20;38.95;;;6.90;;
19814;SDS011;10067;53.092;8.800;2023-04-25T00:05:47;33.03;;;6.85;;
19814;SDS011;10067;53.092;8.800;2023-04-25T00:08:14;36.75;;;6.53;;
19814;SDS011;10067;53.092;8.800;2023-04-25T00:10:41;32.78;;;6.68;;
19814;SDS011;10067;53.092;8.800;2023-04-25T00:13:08;33.75;;;7.15;;
19814;SDS011;10067;53.092;8.800;2023-04-25T00:15:36;29.35;;;6.93;;
19814;SDS011;10067;53.092;8.800;2023-04-25T00:18:03;30.40;;;6.85;;
19814;SDS011;10067;53.092;8.800;2023-04-25T00:20:30;34.05;;;5.57;;
19814;SDS011;10067;53.092;8.800;2023-04-25T00:22:57;24.75;;;5.72;;
19814;SDS011;10067;53.092;8.800;2023-04-25T00:25:23;41.85;;;6.90;;
19814;SDS011;10067;53.092;8.800;2023-04-25T00:27:51;29.70;;;5.80;;
19814;SDS011;10067;53.092;8.800;2023-04-25T00:30:17;25.60;;;6.10;;
19814;SDS011;10067;53.092;8.800;2023-04-25T00:32:44;39.35;;;6.38;;
19814;SDS011;10067;53.092;8.800;2023-04-25T00:35:11;32.15;;;5.35;;
19814;SDS011;10067;53.092;8.800;2023-04-25T00:37:37;44.30;;;7.88;;
19814;SDS011;10067;53.092;8.800;2023-04-25T00:40:04;29.73;;;7.10;;
19814;SDS011;10067;53.092;8.800;2023-04-25T00:42:31;29.55;;;6.95;;
19814;SDS011;10067;53.092;8.800;2023-04-25T00:44:59;40.25;;;8.15;;
19814;SDS011;10067;53.092;8.800;2023-04-25T00:47:26;40.08;;;7.80;;
19814;SDS011;10067;53.092;8.800;2023-04-25T00:49:54;37.95;;;7.13;;
19814;SDS011;10067;53.092;8.800;2023-04-25T00:52:20;43.50;;;9.10;;
19814;SDS011;10067;53.092;8.800;2023-04-25T00:54:47;37.97;;;8.55;;
19814;SDS011;10067;53.092;8.800;2023-04-25T00:57:13;48.45;;;9.63;;
19814;SDS011;10067;53.092;8.800;2023-04-25T00:59:40;40.25;;;8.07;;
19814;SDS011;10067;53.092;8.800;2023-04-25T01:02:12;37.58;;;6.50;;
19814;SDS011;10067;53.092;8.800;2023-04-25T01:04:38;37.65;;;8.65;;
19814;SDS011;10067;53.092;8.800;2023-04-25T01:07:05;30.48;;;7.38;;
19814;SDS011;10067;53.092;8.800;2023-04-25T01:09:31;27.98;;;7.47;;
19814;SDS011;10067;53.092;8.800;2023-04-25T01:11:58;40.30;;;7.75;;
19814;SDS011;10067;53.092;8.800;2023-04-25T01:14:25;27.70;;;5.88;;
19814;SDS011;10067;53.092;8.800;2023-04-25T01:16:51;31.73;;;7.15;;
19814;SDS011;10067;53.092;8.800;2023-04-25T01:19:21;26.60;;;6.20;;
19814;SDS011;10067;53.092;8.800;2023-04-25T01:21:48;33.17;;;7.07;;
19814;SDS011;10067;53.092;8.800;2023-04-25T01:24:15;34.20;;;7.22;;
19814;SDS011;10067;53.092;8.800;2023-04-25T01:26:42;36.00;;;6.35;;
19814;SDS011;10067;53.092;8.800;2023-04-25T01:29:14;30.40;;;6.25;;
19814;SDS011;10067;53.092;8.800;2023-04-25T01:31:41;32.78;;;6.45;;
19814;SDS011;10067;53.092;8.800;2023-04-25T01:34:07;29.80;;;5.80;;
19814;SDS011;10067;53.092;8.800;2023-04-25T01:36:34;28.85;;;6.07;;
19814;SDS011;10067;53.092;8.800;2023-04-25T01:39:02;23.73;;;5.60;;
19814;SDS011;10067;53.092;8.800;2023-04-25T01:41:29;29.20;;;5.47;;
19814;SDS011;10067;53.092;8.800;2023-04-25T01:43:55;29.25;;;6.63;;
19814;SDS011;10067;53.092;8.800;2023-04-25T01:46:22;32.85;;;5.97;;
19814;SDS011;10067;53.092;8.800;2023-04-25T01:48:48;32.67;;;7.20;;
19814;SDS011;10067;53.092;8.800;2023-04-25T01:51:15;39.22;;;6.78;;
19814;SDS011;10067;53.092;8.800;2023-04-25T01:53:41;24.58;;;5.95;;
19814;SDS011;10067;53.092;8.800;2023-04-25T01:56:10;36.95;;;5.88;;
19814;SDS011;10067;53.092;8.800;2023-04-25T01:58:36;26.55;;;5.50;;
19814;SDS011;10067;53.092;8.800;2023-04-25T02:01:02;29.97;;;6.23;;
19814;SDS011;10067;53.092;8.800;2023-04-25T02:03:29;39.65;;;6.72;;
19814;SDS011;10067;53.092;8.800;2023-04-25T02:05:56;39.90;;;6.55;;
19814;SDS011;10067;53.092;8.800;2023-04-25T02:08:22;27.58;;;5.80;;
19814;SDS011;10067;53.092;8.800;2023-04-25T02:10:51;31.80;;;6.40;;
19814;SDS011;10067;53.092;8.800;2023-04-25T02:13:18;23.23;;;5.43;;
19814;SDS011;10067;53.092;8.800;2023-04-25T02:15:45;26.35;;;5.70;;
19814;SDS011;10067;53.092;8.800;2023-04-25T02:18:11;40.42;;;6.03;;
19814;SDS011;10067;53.092;8.800;2023-04-25T02:20:38;29.70;;;5.95;;
19814;SDS011;10067;53.092;8.800;2023-04-25T02:23:04;29.75;;;5.28;;
19814;SDS011;10067;53.092;8.800;2023-04-25T02:25:31;29.03;;;5.73;;
19814;SDS011;10067;53.092;8.800;2023-04-25T02:27:57;32.08;;;6.95;;
19814;SDS011;10067;53.092;8.800;2023-04-25T02:30:25;28.00;;;6.60;;
19814;SDS011;10067;53.092;8.800;2023-04-25T02:32:51;31.80;;;7.22;;
19814;SDS011;10067;53.092;8.800;2023-04-25T02:35:18;32.58;;;5.80;;
19814;SDS011;10067;53.092;8.800;2023-04-25T02:37:45;28.70;;;6.32;;
19814;SDS011;10067;53.092;8.800;2023-04-25T02:40:11;31.43;;;5.33;;
19814;SDS011;10067;53.092;8.800;2023-04-25T02:42:38;24.40;;;5.40;;
19814;SDS011;10067;53.092;8.800;2023-04-25T02:45:05;36.63;;;6.73;;
19814;SDS011;10067;53.092;8.800;2023-04-25T02:47:32;39.08;;;6.72;;
19814;SDS011;10067;53.092;8.800;2023-04-25T02:49:59;39.17;;;7.05;;
19814;SDS011;10067;53.092;8.800;2023-04-25T02:52:25;26.10;;;5.20;;
19814;SDS011;10067;53.092;8.800;2023-04-25T02:54:52;27.50;;;5.80;;
19814;SDS011;10067;53.092;8.800;2023-04-25T02:57:18;28.47;;;6.47;;
19814;SDS011;10067;53.092;8.800;2023-04-25T02:59:45;34.73;;;6.83;;
19814;SDS011;10067;53.092;8.800;2023-04-25T03:02:11;26.55;;;5.93;;
19814;SDS011;10067;53.092;8.800;2023-04-25T03:04:39;28.38;;;6.85;;
19814;SDS011;10067;53.092;8.800;2023-04-25T03:07:05;27.83;;;5.65;;
19814;SDS011;10067;53.092;8.800;2023-04-25T03:09:32;29.73;;;5.82;;
19814;SDS011;10067;53.092;8.800;2023-04-25T03:11:58;28.45;;;5.57;;
19814;SDS011;10067;53.092;8.800;2023-04-25T03:14:25;23.53;;;5.47;;
19814;SDS011;10067;53.092;8.800;2023-04-25T03:16:51;28.43;;;5.70;;
19814;SDS011;10067;53.092;8.800;2023-04-25T03:19:18;32.17;;;5.77;;
19814;SDS011;10067;53.092;8.800;2023-04-25T03:21:46;29.27;;;5.10;;
19814;SDS011;10067;53.092;8.800;2023-04-25T03:24:13;29.63;;;6.73;;
19814;SDS011;10067;53.092;8.800;2023-04-25T03:26:40;29.13;;;6.03;;
19814;SDS011;10067;53.092;8.800;2023-04-25T03:29:06;28.23;;;6.30;;
19814;SDS011;10067;53.092;8.800;2023-04-25T03:31:33;28.83;;;5.93;;
19814;SDS011;10067;53.092;8.800;2023-04-25T03:33:59;30.30;;;6.67;;
19814;SDS011;10067;53.092;8.800;2023-04-25T03:36:26;32.37;;;5.90;;
19814;SDS011;10067;53.092;8.800;2023-04-25T03:38:54;36.27;;;7.07;;
19814;SDS011;10067;53.092;8.800;2023-04-25T03:41:20;35.43;;;6.30;;
19814;SDS011;10067;53.092;8.800;2023-04-25T03:43:46;30.33;;;6.03;;
19814;SDS011;10067;53.092;8.800;2023-04-25T03:46:13;31.17;;;6.60;;
19814;SDS011;10067;53.092;8.800;2023-04-25T03:48:39;33.07;;;6.57;;
19814;SDS011;10067;53.092;8.800;2023-04-25T03:51:06;23.20;;;5.63;;
19814;SDS011;10067;53.092;8.800;2023-04-25T03:53:32;26.00;;;5.03;;
19814;SDS011;10067;53.092;8.800;2023-04-25T03:56:00;28.80;;;5.80;;
19814;SDS011;10067;53.092;8.800;2023-04-25T03:58:26;25.53;;;5.67;;
19814;SDS011;10067;53.092;8.800;2023-04-25T04:00:53;31.37;;;6.17;;
19814;SDS011;10067;53.092;8.800;2023-04-25T04:03:19;22.90;;;5.53;;
19814;SDS011;10067;53.092;8.800;2023-04-25T04:05:46;20.03;;;4.53;;
19814;SDS011;10067;53.092;8.800;2023-04-25T04:08:12;26.13;;;5.43;;
19814;SDS011;10067;53.092;8.800;2023-04-25T04:10:39;30.10;;;5.40;;
19814;SDS011;10067;53.092;8.800;2023-04-25T04:13:06;25.23;;;4.53;;
19814;SDS011;10067;53.092;8.800;2023-04-25T04:15:33;29.23;;;5.93;;
19814;SDS011;10067;53.092;8.800;2023-04-25T04:17:59;38.73;;;5.97;;
19814;SDS011;10067;53.092;8.800;2023-04-25T04:20:28;31.60;;;6.27;;
19814;SDS011;10067;53.092;8.800;2023-04-25T04:22:54;27.60;;;7.63;;
19814;SDS011;10067;53.092;8.800;2023-04-25T04:25:21;35.47;;;8.23;;
19814;SDS011;10067;53.092;8.800;2023-04-25T04:27:47;28.57;;;5.97;;
19814;SDS011;10067;53.092;8.800;2023-04-25T04:30:15;31.83;;;6.43;;
19814;SDS011;10067;53.092;8.800;2023-04-25T04:32:41;27.00;;;7.97;;
19814;SDS011;10067;53.092;8.800;2023-04-25T04:35:08;33.07;;;8.13;;
19814;SDS011;10067;53.092;8.800;2023-04-25T04:37:36;25.27;;;6.60;;
19814;SDS011;10067;53.092;8.800;2023-04-25T04:40:03;29.87;;;6.83;;
19814;SDS011;10067;53.092;8.800;2023-04-25T04:42:30;24.87;;;6.80;;
19814;SDS011;10067;53.092;8.800;2023-04-25T04:44:56;31.87;;;7.80;;
19814;SDS011;10067;53.092;8.800;2023-04-25T04:47:25;29.67;;;5.90;;
19814;SDS011;10067;53.092;8.800;2023-04-25T04:49:55;25.53;;;6.80;;
19814;SDS011;10067;53.092;8.800;2023-04-25T04:52:22;28.00;;;6.43;;
19814;SDS011;10067;53.092;8.800;2023-04-25T04:54:48;39.67;;;7.40;;
19814;SDS011;10067;53.092;8.800;2023-04-25T04:57:15;24.20;;;5.33;;
19814;SDS011;10067;53.092;8.800;2023-04-25T04:59:42;24.17;;;4.87;;
19814;SDS011;10067;53.092;8.800;2023-04-25T05:02:08;24.13;;;4.60;;
19814;SDS011;10067;53.092;8.800;2023-04-25T05:04:36;21.83;;;4.43;;
19814;SDS011;10067;53.092;8.800;2023-04-25T05:07:03;24.83;;;4.83;;
19814;SDS011;10067;53.092;8.800;2023-04-25T05:09:29;27.40;;;5.53;;
19814;SDS011;10067;53.092;8.800;2023-04-25T05:11:56;24.77;;;4.53;;
19814;SDS011;10067;53.092;8.800;2023-04-25T05:14:22;20.97;;;5.17;;
19814;SDS011;10067;53.092;8.800;2023-04-25T05:16:49;26.93;;;5.10;;
19814;SDS011;10067;53.092;8.800;2023-04-25T05:19:15;21.30;;;4.70;;
19814;SDS011;10067;53.092;8.800;2023-04-25T05:21:43;21.70;;;4.20;;
19814;SDS011;10067;53.092;8.800;2023-04-25T05:24:10;22.03;;;4.23;;
19814;SDS011;10067;53.092;8.800;2023-04-25T05:26:36;22.17;;;4.40;;
19814;SDS011;10067;53.092;8.800;2023-04-25T05:29:03;23.83;;;4.90;;
19814;SDS011;10067;53.092;8.800;2023-04-25T05:31:30;17.37;;;4.53;;
19814;SDS011;10067;53.092;8.800;2023-04-25T05:33:57;16.77;;;5.23;;
19814;SDS011;10067;53.092;8.800;2023-04-25T05:36:23;21.00;;;7.30;;
19814;SDS011;10067;53.092;8.800;2023-04-25T05:38:52;28.40;;;4.90;;
19814;SDS011;10067;53.092;8.800;2023-04-25T05:41:18;23.67;;;4.93;;
19814;SDS011;10067;53.092;8.800;2023-04-25T05:43:45;21.13;;;4.07;;
19814;SDS011;10067;53.092;8.800;2023-04-25T05:46:13;15.83;;;3.83;;
19814;SDS011;10067;53.092;8.800;2023-04-25T05:48:40;16.63;;;3.83;;
19814;SDS011;10067;53.092;8.800;2023-04-25T05:51:07;18.63;;;4.43;;
19814;SDS011;10067;53.092;8.800;2023-04-25T05:53:33;20.20;;;5.33;;
19814;SDS011;10067;53.092;8.800;2023-04-25T05:56:01;30.40;;;4.60;;
19814;SDS011;10067;53.092;8.800;2023-04-25T05:58:28;18.27;;;3.90;;
19814;SDS011;10067;53.092;8.800;2023-04-25T06:00:55;28.67;;;4.77;;
19814;SDS011;10067;53.092;8.800;2023-04-25T06:03:21;12.80;;;3.73;;
19814;SDS011;10067;53.092;8.800;2023-04-25T06:05:48;19.50;;;5.30;;
19814;SDS011;10067;53.092;8.800;2023-04-25T06:08:14;16.33;;;3.93;;
19814;SDS011;10067;53.092;8.800;2023-04-25T06:10:41;25.87;;;3.33;;
19814;SDS011;10067;53.092;8.800;2023-04-25T06:13:08;26.77;;;3.63;;
19814;SDS011;10067;53.092;8.800;2023-04-25T06:15:35;22.63;;;4.07;;
19814;SDS011;10067;53.092;8.800;2023-04-25T06:18:01;18.23;;;3.80;;
19814;SDS011;10067;53.092;8.800;2023-04-25T06:20:28;15.83;;;3.90;;
19814;SDS011;10067;53.092;8.800;2023-04-25T06:22:54;17.60;;;3.80;;
19814;SDS011;10067;53.092;8.800;2023-04-25T06:25:21;20.23;;;3.90;;
19814;SDS011;10067;53.092;8.800;2023-04-25T06:27:47;16.13;;;3.47;;
19814;SDS011;10067;53.092;8.800;2023-04-25T06:30:15;18.00;;;4.10;;
19814;SDS011;10067;53.092;8.800;2023-04-25T06:32:43;21.60;;;4.17;;
19814;SDS011;10067;53.092;8.800;2023-04-25T06:35:09;23.07;;;4.53;;
19814;SDS011;10067;53.092;8.800;2023-04-25T06:37:36;18.13;;;3.53;;
19814;SDS011;10067;53.092;8.800;2023-04-25T06:40:03;16.80;;;3.50;;
19814;SDS011;10067;53.092;8.800;2023-04-25T06:42:29;20.17;;;3.73;;
19814;SDS011;10067;53.092;8.800;2023-04-25T06:44:55;25.13;;;3.40;;
19814;SDS011;10067;53.092;8.800;2023-04-25T06:47:23;11.73;;;2.83;;
19814;SDS011;10067;53.092;8.800;2023-04-25T06:49:50;17.67;;;3.20;;
19814;SDS011;10067;53.092;8.800;2023-04-25T06:52:16;20.52;;;3.78;;
19814;SDS011;10067;53.092;8.800;2023-04-25T06:54:43;14.43;;;3.05;;
19814;SDS011;10067;53.092;8.800;2023-04-25T06:57:10;15.75;;;3.40;;
19814;SDS011;10067;53.092;8.800;2023-04-25T06:59:36;14.35;;;3.65;;
19814;SDS011;10067;53.092;8.800;2023-04-25T07:02:03;12.65;;;3.20;;
19814;SDS011;10067;53.092;8.800;2023-04-25T07:04:31;19.25;;;3.92;;
19814;SDS011;10067;53.092;8.800;2023-04-25T07:06:57;18.40;;;4.35;;
19814;SDS011;10067;53.092;8.800;2023-04-25T07:09:25;16.30;;;3.45;;
19814;SDS011;10067;53.092;8.800;2023-04-25T07:11:52;14.20;;;2.42;;
19814;SDS011;10067;53.092;8.800;2023-04-25T07:14:18;22.08;;;3.40;;
19814;SDS011;10067;53.092;8.800;2023-04-25T07:16:45;17.50;;;3.13;;
19814;SDS011;10067;53.092;8.800;2023-04-25T07:19:11;13.95;;;2.83;;
19814;SDS011;10067;53.092;8.800;2023-04-25T07:21:39;10.57;;;3.03;;
19814;SDS011;10067;53.092;8.800;2023-04-25T07:24:06;18.42;;;3.17;;
19814;SDS011;10067;53.092;8.800;2023-04-25T07:26:32;26.00;;;3.58;;
19814;SDS011;10067;53.092;8.800;2023-04-25T07:28:59;16.48;;;2.90;;
19814;SDS011;10067;53.092;8.800;2023-04-25T07:31:26;14.15;;;2.90;;
19814;SDS011;10067;53.092;8.800;2023-04-25T07:33:52;19.55;;;3.50;;
19814;SDS011;10067;53.092;8.800;2023-04-25T07:36:19;15.82;;;2.88;;
19814;SDS011;10067;53.092;8.800;2023-04-25T07:38:47;15.70;;;3.58;;
19814;SDS011;10067;53.092;8.800;2023-04-25T07:41:14;18.75;;;3.00;;
19814;SDS011;10067;53.092;8.800;2023-04-25T07:43:40;17.50;;;3.78;;
19814;SDS011;10067;53.092;8.800;2023-04-25T07:46:07;17.30;;;3.58;;
19814;SDS011;10067;53.092;8.800;2023-04-25T07:48:33;12.13;;;2.47;;
19814;SDS011;10067;53.092;8.800;2023-04-25T07:50:59;15.18;;;3.25;;
19814;SDS011;10067;53.092;8.800;2023-04-25T07:53:26;14.40;;;3.58;;
19814;SDS011;10067;53.092;8.800;2023-04-25T07:55:54;12.23;;;2.67;;
19814;SDS011;10067;53.092;8.800;2023-04-25T07:58:20;12.60;;;2.97;;
19814;SDS011;10067;53.092;8.800;2023-04-25T08:00:47;11.57;;;2.38;;
19814;SDS011;10067;53.092;8.800;2023-04-25T08:03:14;11.40;;;2.50;;
19814;SDS011;10067;53.092;8.800;2023-04-25T08:05:40;17.13;;;3.47;;
19814;SDS011;10067;53.092;8.800;2023-04-25T08:08:06;16.35;;;3.00;;
19814;SDS011;10067;53.092;8.800;2023-04-25T08:10:33;9.02;;;2.30;;
19814;SDS011;10067;53.092;8.800;2023-04-25T08:13:01;18.42;;;3.47;;
19814;SDS011;10067;53.092;8.800;2023-04-25T08:15:27;14.13;;;3.33;;
19814;SDS011;10067;53.092;8.800;2023-04-25T08:17:54;11.02;;;2.65;;
19814;SDS011;10067;53.092;8.800;2023-04-25T08:20:20;12.57;;;2.75;;
19814;SDS011;10067;53.092;8.800;2023-04-25T08:22:47;17.23;;;3.72;;
19814;SDS011;10067;53.092;8.800;2023-04-25T08:25:14;16.73;;;3.00;;
19814;SDS011;10067;53.092;8.800;2023-04-25T08:27:41;12.85;;;3.08;;
19814;SDS011;10067;53.092;8.800;2023-04-25T08:30:09;11.02;;;2.72;;
19814;SDS011;10067;53.092;8.800;2023-04-25T08:32:35;14.27;;;3.08;;
19814;SDS011;10067;53.092;8.800;2023-04-25T08:35:03;12.00;;;2.30;;
19814;SDS011;10067;53.092;8.800;2023-04-25T08:37:29;9.20;;;2.03;;
19814;SDS011;10067;53.092;8.800;2023-04-25T08:39:56;9.52;;;2.50;;
19814;SDS011;10067;53.092;8.800;2023-04-25T08:42:22;10.93;;;1.95;;
19814;SDS011;10067;53.092;8.800;2023-04-25T08:44:49;9.82;;;2.20;;
19814;SDS011;10067;53.092;8.800;2023-04-25T08:47:18;8.80;;;2.20;;
19814;SDS011;10067;53.092;8.800;2023-04-25T08:49:47;6.32;;;1.88;;
19814;SDS011;10067;53.092;8.800;2023-04-25T08:52:14;6.30;;;1.50;;
19814;SDS011;10067;53.092;8.800;2023-04-25T08:54:46;7.97;;;1.77;;
19814;SDS011;10067;53.092;8.800;2023-04-25T08:57:14;6.85;;;1.33;;
19814;SDS011;10067;53.092;8.800;2023-04-25T08:59:40;10.73;;;2.03;;
19814;SDS011;10067;53.092;8.800;2023-04-25T09:02:10;8.70;;;2.20;;
19814;SDS011;10067;53.092;8.800;2023-04-25T09:04:40;6.68;;;2.00;;
19814;SDS011;10067;53.092;8.800;2023-04-25T09:07:07;8.98;;;1.77;;
19814;SDS011;10067;53.092;8.800;2023-04-25T09:09:34;8.48;;;1.70;;
19814;SDS011;10067;53.092;8.800;2023-04-25T09:12:00;5.75;;;1.70;;
19814;SDS011;10067;53.092;8.800;2023-04-25T09:14:27;7.22;;;2.10;;
19814;SDS011;10067;53.092;8.800;2023-04-25T09:16:57;9.30;;;1.77;;
19814;SDS011;10067;53.092;8.800;2023-04-25T09:19:24;10.32;;;2.22;;
19814;SDS011;10067;53.092;8.800;2023-04-25T09:21:55;11.15;;;2.00;;
19814;SDS011;10067;53.092;8.800;2023-04-25T09:24:29;12.02;;;2.40;;
19814;SDS011;10067;53.092;8.800;2023-04-25T09:26:56;8.23;;;1.92;;
19814;SDS011;10067;53.092;8.800;2023-04-25T09:29:28;7.05;;;1.85;;
19814;SDS011;10067;53.092;8.800;2023-04-25T09:31:57;7.35;;;1.73;;
19814;SDS011;10067;53.092;8.800;2023-04-25T09:34:38;6.78;;;1.88;;
19814;SDS011;10067;53.092;8.800;2023-04-25T09:37:10;14.07;;;3.38;;
19814;SDS011;10067;53.092;8.800;2023-04-25T09:39:37;10.82;;;1.90;;
19814;SDS011;10067;53.092;8.800;2023-04-25T09:42:03;9.52;;;1.90;;
19814;SDS011;10067;53.092;8.800;2023-04-25T09:44:30;8.05;;;2.25;;
19814;SDS011;10067;53.092;8.800;2023-04-25T09:46:56;7.18;;;1.90;;
19814;SDS011;10067;53.092;8.800;2023-04-25T09:49:24;8.15;;;1.98;;
19814;SDS011;10067;53.092;8.800;2023-04-25T09:51:54;10.20;;;2.20;;
19814;SDS011;10067;53.092;8.800;2023-04-25T09:54:23;9.63;;;2.05;;
19814;SDS011;10067;53.092;8.800;2023-04-25T09:56:49;9.52;;;2.25;;
19814;SDS011;10067;53.092;8.800;2023-04-25T09:59:17;9.90;;;2.42;;
19814;SDS011;10067;53.092;8.800;2023-04-25T10:01:45;7.18;;;2.72;;
19814;SDS011;10067;53.092;8.800;2023-04-25T10:04:11;8.40;;;2.47;;
19814;SDS011;10067;53.092;8.800;2023-04-25T10:06:38;8.40;;;2.50;;
19814;SDS011;10067;53.092;8.800;2023-04-25T10:09:08;9.98;;;2.40;;
19814;SDS011;10067;53.092;8.800;2023-04-25T10:11:35;4.70;;;1.60;;
19814;SDS011;10067;53.092;8.800;2023-04-25T10:14:02;7.70;;;1.60;;
19814;SDS011;10067;53.092;8.800;2023-04-25T10:16:29;11.45;;;2.13;;
19814;SDS011;10067;53.092;8.800;2023-04-25T10:18:56;7.07;;;1.70;;
19814;SDS011;10067;53.092;8.800;2023-04-25T10:21:22;5.68;;;1.98;;
19814;SDS011;10067;53.092;8.800;2023-04-25T10:23:49;7.60;;;1.75;;
19814;SDS011;10067;53.092;8.800;2023-04-25T10:26:16;8.65;;;1.75;;
19814;SDS011;10067;53.092;8.800;2023-04-25T10:31:26;6.93;;;1.60;;
19814;SDS011;10067;53.092;8.800;2023-04-25T10:33:52;7.50;;;1.60;;
19814;SDS011;10067;53.092;8.800;2023-04-25T10:36:20;7.72;;;1.85;;
19814;SDS011;10067;53.092;8.800;2023-04-25T10:38:47;7.75;;;1.50;;
19814;SDS011;10067;53.092;8.800;2023-04-25T10:41:15;7.13;;;1.50;;
19814;SDS011;10067;53.092;8.800;2023-04-25T10:43:44;8.48;;;1.92;;
19814;SDS011;10067;53.092;8.800;2023-04-25T10:46:15;5.85;;;2.20;;
19814;SDS011;10067;53.092;8.800;2023-04-25T10:48:47;8.45;;;1.63;;
19814;SDS011;10067;53.092;8.800;2023-04-25T10:51:19;6.70;;;2.03;;
19814;SDS011;10067;53.092;8.800;2023-04-25T10:53:46;5.32;;;1.70;;
19814;SDS011;10067;53.092;8.800;2023-04-25T10:56:16;6.80;;;1.52;;
19814;SDS011;10067;53.092;8.800;2023-04-25T10:58:43;4.05;;;1.52;;
19814;SDS011;10067;53.092;8.800;2023-04-25T11:01:09;8.55;;;1.70;;
19814;SDS011;10067;53.092;8.800;2023-04-25T11:03:38;8.45;;;1.83;;
19814;SDS011;10067;53.092;8.800;2023-04-25T11:06:05;6.53;;;1.73;;
19814;SDS011;10067;53.092;8.800;2023-04-25T11:08:36;6.07;;;1.80;;
19814;SDS011;10067;53.092;8.800;2023-04-25T11:11:07;9.98;;;1.92;;
19814;SDS011;10067;53.092;8.800;2023-04-25T11:13:34;8.77;;;2.17;;
19814;SDS011;10067;53.092;8.800;2023-04-25T11:16:00;6.82;;;2.05;;
19814;SDS011;10067;53.092;8.800;2023-04-25T11:18:27;8.75;;;2.47;;
19814;SDS011;10067;53.092;8.800;2023-04-25T11:20:53;8.55;;;2.10;;
19814;SDS011;10067;53.092;8.800;2023-04-25T11:23:21;5.88;;;2.00;;
19814;SDS011;10067;53.092;8.800;2023-04-25T11:25:47;10.30;;;2.22;;
19814;SDS011;10067;53.092;8.800;2023-04-25T11:28:20;7.95;;;1.98;;
19814;SDS011;10067;53.092;8.800;2023-04-25T11:30:47;12.30;;;2.17;;
19814;SDS011;10067;53.092;8.800;2023-04-25T11:33:14;8.77;;;2.47;;
19814;SDS011;10067;53.092;8.800;2023-04-25T11:35:40;11.48;;;2.63;;
19814;SDS011;10067;53.092;8.800;2023-04-25T11:38:07;12.32;;;2.80;;
19814;SDS011;10067;53.092;8.800;2023-04-25T11:40:35;8.63;;;2.13;;
19814;SDS011;10067;53.092;8.800;2023-04-25T11:43:01;8.15;;;2.05;;
19814;SDS011;10067;53.092;8.800;2023-04-25T11:45:27;6.53;;;2.08;;
19814;SDS011;10067;53.092;8.800;2023-04-25T11:47:55;13.77;;;2.33;;
19814;SDS011;10067;53.092;8.800;2023-04-25T11:50:22;10.30;;;2.72;;
19814;SDS011;10067;53.092;8.800;2023-04-25T11:52:48;14.82;;;3.10;;
19814;SDS011;10067;53.092;8.800;2023-04-25T11:55:16;10.05;;;2.80;;
19814;SDS011;10067;53.092;8.800;2023-04-25T11:57:46;12.65;;;2.78;;
19814;SDS011;10067;53.092;8.800;2023-04-25T12:00:14;7.15;;;2.17;;
19814;SDS011;10067;53.092;8.800;2023-04-25T12:02:42;8.98;;;2.35;;
19814;SDS011;10067;53.092;8.800;2023-04-25T12:05:08;10.43;;;2.60;;
19814;SDS011;10067;53.092;8.800;2023-04-25T12:07:35;9.98;;;2.03;;
19814;SDS011;10067;53.092;8.800;2023-04-25T12:10:04;6.50;;;1.77;;
19814;SDS011;10067;53.092;8.800;2023-04-25T12:12:31;5.78;;;1.55;;
19814;SDS011;10067;53.092;8.800;2023-04-25T12:15:07;4.95;;;1.02;;
19814;SDS011;10067;53.092;8.800;2023-04-25T12:17:34;5.35;;;1.27;;
19814;SDS011;10067;53.092;8.800;2023-04-25T12:20:05;5.70;;;1.38;;
19814;SDS011;10067;53.092;8.800;2023-04-25T12:22:32;6.05;;;1.65;;
19814;SDS011;10067;53.092;8.800;2023-04-25T12:24:58;7.75;;;1.67;;
19814;SDS011;10067;53.092;8.800;2023-04-25T12:27:25;7.65;;;2.25;;
19814;SDS011;10067;53.092;8.800;2023-04-25T12:29:52;7.88;;;1.98;;
19814;SDS011;10067;53.092;8.800;2023-04-25T12:32:20;6.40;;;1.80;;
19814;SDS011;10067;53.092;8.800;2023-04-25T12:34:47;6.22;;;1.95;;
19814;SDS011;10067;53.092;8.800;2023-04-25T12:37:13;9.20;;;1.60;;
19814;SDS011;10067;53.092;8.800;2023-04-25T12:39:40;7.00;;;2.30;;
19814;SDS011;10067;53.092;8.800;2023-04-25T12:42:06;9.35;;;2.33;;
19814;SDS011;10067;53.092;8.800;2023-04-25T12:44:36;6.90;;;2.25;;
19814;SDS011;10067;53.092;8.800;2023-04-25T12:47:03;6.88;;;1.95;;
19814;SDS011;10067;53.092;8.800;2023-04-25T12:49:31;7.82;;;1.95;;
19814;SDS011;10067;53.092;8.800;2023-04-25T12:51:58;7.25;;;2.35;;
19814;SDS011;10067;53.092;8.800;2023-04-25T12:54:24;10.65;;;2.47;;
19814;SDS011;10067;53.092;8.800;2023-04-25T12:56:50;9.35;;;2.63;;
19814;SDS011;10067;53.092;8.800;2023-04-25T12:59:17;8.25;;;1.98;;
19814;SDS011;10067;53.092;8.800;2023-04-25T13:01:45;8.90;;;1.95;;
19814;SDS011;10067;53.092;8.800;2023-04-25T13:04:11;6.05;;;1.60;;
19814;SDS011;10067;53.092;8.800;2023-04-25T13:06:39;4.22;;;1.50;;
19814;SDS011;10067;53.092;8.800;2023-04-25T13:09:05;5.97;;;1.67;;
19814;SDS011;10067;53.092;8.800;2023-04-25T13:11:32;3.22;;;1.40;;
19814;SDS011;10067;53.092;8.800;2023-04-25T13:13:59;10.88;;;2.30;;
19814;SDS011;10067;53.092;8.800;2023-04-25T13:16:25;6.32;;;1.80;;
19814;SDS011;10067;53.092;8.800;2023-04-25T13:18:52;8.55;;;2.15;;
19814;SDS011;10067;53.092;8.800;2023-04-25T13:21:18;5.25;;;1.73;;
19814;SDS011;10067;53.092;8.800;2023-04-25T13:23:46;8.25;;;1.90;;
19814;SDS011;10067;53.092;8.800;2023-04-25T13:26:12;9.32;;;2.10;;
19814;SDS011;10067;53.092;8.800;2023-04-25T13:28:39;6.68;;;1.83;;
19814;SDS011;10067;53.092;8.800;2023-04-25T13:31:06;6.28;;;1.80;;
19814;SDS011;10067;53.092;8.800;2023-04-25T13:33:32;7.18;;;2.50;;
19814;SDS011;10067;53.092;8.800;2023-04-25T13:36:00;5.72;;;1.77;;
19814;SDS011;10067;53.092;8.800;2023-04-25T13:38:26;14.45;;;3.10;;
19814;SDS011;10067;53.092;8.800;2023-04-25T13:40:54;8.82;;;2.30;;
19814;SDS011;10067;53.092;8.800;2023-04-25T13:43:20;6.60;;;1.67;;
19814;SDS011;10067;53.092;8.800;2023-04-25T13:45:47;6.00;;;2.17;;
19814;SDS011;10067;53.092;8.800;2023-04-25T13:48:14;7.80;;;1.75;;
19814;SDS011;10067;53.092;8.800;2023-04-25T13:50:40;6.15;;;1.50;;
19814;SDS011;10067;53.092;8.800;2023-04-25T13:53:07;9.85;;;1.80;;
19814;SDS011;10067;53.092;8.800;2023-04-25T13:55:33;6.38;;;1.75;;
19814;SDS011;10067;53.092;8.800;2023-04-25T13:58:01;6.82;;;3.15;;
19814;SDS011;10067;53.092;8.800;2023-04-25T14:00:32;5.35;;;2.00;;
19814;SDS011;10067;53.092;8.800;2023-04-25T14:02:58;6.65;;;1.83;;
19814;SDS011;10067;53.092;8.800;2023-04-25T14:05:25;4.70;;;1.77;;
19814;SDS011;10067;53.092;8.800;2023-04-25T14:07:51;8.07;;;1.90;;
19814;SDS011;10067;53.092;8.800;2023-04-25T14:10:17;4.55;;;1.80;;
19814;SDS011;10067;53.092;8.800;2023-04-25T14:12:44;10.27;;;2.42;;
19814;SDS011;10067;53.092;8.800;2023-04-25T14:15:12;7.95;;;2.63;;
19814;SDS011;10067;53.092;8.800;2023-04-25T14:17:38;7.10;;;1.90;;
19814;SDS011;10067;53.092;8.800;2023-04-25T14:20:05;7.50;;;1.88;;
19814;SDS011;10067;53.092;8.800;2023-04-25T14:22:32;7.82;;;1.70;;
19814;SDS011;10067;53.092;8.800;2023-04-25T14:24:59;6.35;;;1.67;;
19814;SDS011;10067;53.092;8.800;2023-04-25T14:27:26;7.15;;;1.60;;
19814;SDS011;10067;53.092;8.800;2023-04-25T14:29:52;7.18;;;2.08;;
19814;SDS011;10067;53.092;8.800;2023-04-25T14:32:20;8.60;;;2.05;;
19814;SDS011;10067;53.092;8.800;2023-04-25T14:34:47;6.78;;;2.13;;
19814;SDS011;10067;53.092;8.800;2023-04-25T14:37:13;11.20;;;2.10;;
19814;SDS011;10067;53.092;8.800;2023-04-25T14:39:39;3.85;;;1.40;;